Time;durP1;ratioP1;P1;durP2;ratioP2;P2;SDS_P1;SDS_P2;PMS_P1;PMS_P2;Temp;Humidity;BMP_temperature;BMP_pressure;BME280_temperature;BME280_humidity;BME280_pressure;Samples;Min_cycle;Max_cycle;Signal;HPM_P1;HPM_P2
2022/05/31 00:02:02;;;;;;;0.67;0.67;;;;;;;11.14;54.80;101304.78;4979816;28;97217;-45
2022/05/31 00:04:29;;;;;;;1.40;0.70;;;;;;;11.11;54.87;101305.00;4979223;28;98017;-48
2022/05/31 00:06:54;;;;;;;1.57;1.10;;;;;;;11.07;54.95;101301.69;4977375;28;97962;-47
2022/05/31 00:09:20;;;;;;;0.50;0.50;;;;;;;11.04;55.19;101302.63;4977935;28;114900;-45
2022/05/31 00:11:45;;;;;;;1.07;0.73;;;;;;;11.04;55.31;101306.16;4975318;28;97081;-47
2022/05/31 00:14:12;;;;;;;0.67;0.67;;;;;;;11.03;55.31;101307.38;4977748;28;109377;-46
2022/05/31 00:16:38;;;;;;;2.50;0.60;;;;;;;11.03;55.17;101306.63;4971551;28;97138;-49
2022/05/31 00:19:04;;;;;;;1.47;0.83;;;;;;;11.04;55.20;101313.66;4977600;28;97102;-46
2022/05/31 00:21:38;;;;;;;0.90;0.90;;;;;;;11.04;55.47;101308.91;4978509;28;97379;-46
2022/05/31 00:24:06;;;;;;;0.73;0.73;;;;;;;11.01;55.16;101298.84;4982010;28;97134;-46
2022/05/31 00:26:31;;;;;;;0.50;0.40;;;;;;;10.98;55.32;101299.06;4980481;28;97277;-45
2022/05/31 00:28:56;;;;;;;0.60;0.60;;;;;;;10.98;55.42;101294.31;4977539;28;101801;-46
2022/05/31 00:31:21;;;;;;;1.50;0.63;;;;;;;10.97;55.37;101300.28;4975869;28;117673;-46
2022/05/31 00:33:47;;;;;;;0.80;0.60;;;;;;;10.99;55.39;101298.56;4976050;28;99098;-48
2022/05/31 00:36:12;;;;;;;0.90;0.60;;;;;;;10.98;55.41;101299.06;4972589;28;125299;-46
2022/05/31 00:38:37;;;;;;;0.70;0.70;;;;;;;10.99;55.49;101295.03;4981048;28;97255;-48
2022/05/31 00:41:25;;;;;;;0.70;0.70;;;;;;;10.98;55.85;101288.03;4973147;28;96885;-47
2022/05/31 00:43:57;;;;;;;0.87;0.70;;;;;;;10.97;55.74;101289.25;4979897;28;100612;-46
2022/05/31 00:46:25;;;;;;;0.70;0.60;;;;;;;10.93;55.38;101283.19;4979289;28;97393;-47
2022/05/31 00:48:56;;;;;;;1.03;0.70;;;;;;;10.89;55.54;101288.16;4981040;28;96903;-45
2022/05/31 00:51:24;;;;;;;1.27;0.60;;;;;;;10.86;55.48;101286.34;4981023;28;96741;-46
2022/05/31 00:53:55;;;;;;;0.90;0.70;;;;;;;10.84;55.72;101291.56;4979558;28;101734;-45
2022/05/31 00:56:23;;;;;;;1.00;0.70;;;;;;;10.80;55.70;101288.25;4977348;28;97799;-48
2022/05/31 00:59:05;;;;;;;1.00;0.73;;;;;;;10.77;56.41;101295.47;4975153;28;97322;-49
2022/05/31 01:01:35;;;;;;;4.23;1.23;;;;;;;10.78;55.78;101297.00;4978189;28;97106;-45
2022/05/31 01:04:00;;;;;;;1.40;0.80;;;;;;;10.79;55.80;101297.78;4976159;28;100328;-46
2022/05/31 01:06:27;;;;;;;1.23;0.60;;;;;;;10.78;55.76;101291.50;4973940;28;97197;-45
2022/05/31 01:08:56;;;;;;;2.40;0.60;;;;;;;10.77;55.74;101294.75;4984070;28;97024;-47
2022/05/31 01:11:23;;;;;;;0.60;0.60;;;;;;;10.75;55.73;101286.19;4975878;28;96937;-49
2022/05/31 01:13:49;;;;;;;0.80;0.80;;;;;;;10.72;55.60;101292.66;4981047;28;98720;-46
2022/05/31 01:16:15;;;;;;;0.80;0.80;;;;;;;10.68;55.62;101286.59;4977224;28;97121;-45
2022/05/31 01:18:40;;;;;;;0.53;0.50;;;;;;;10.66;55.78;101289.06;4978988;28;97394;-47
2022/05/31 01:21:07;;;;;;;0.80;0.80;;;;;;;10.63;55.86;101284.50;4977115;28;96881;-46
2022/05/31 01:23:40;;;;;;;1.63;0.80;;;;;;;10.62;56.06;101282.97;4977295;28;97701;-46
2022/05/31 01:26:29;;;;;;;1.00;0.87;;;;;;;10.59;56.55;101284.72;4982308;28;97145;-49
2022/05/31 01:29:14;;;;;;;0.97;0.80;;;;;;;10.55;56.34;101279.38;4982235;27;97019;-47
2022/05/31 01:31:47;;;;;;;0.80;0.80;;;;;;;10.51;55.94;101284.34;4975403;28;112671;-46
2022/05/31 01:34:31;;;;;;;0.80;0.80;;;;;;;10.49;55.90;101281.28;4970419;28;98899;-45
2022/05/31 01:36:57;;;;;;;0.70;0.67;;;;;;;10.43;55.70;101285.97;4973498;28;96959;-46
2022/05/31 01:39:25;;;;;;;0.60;0.60;;;;;;;10.40;55.85;101284.16;4976206;28;96706;-48
2022/05/31 01:41:57;;;;;;;6.20;1.43;;;;;;;10.36;56.06;101272.59;4977111;28;102416;-48
2022/05/31 01:44:27;;;;;;;0.90;0.90;;;;;;;10.31;55.90;101278.00;4977518;28;97972;-47
2022/05/31 01:46:55;;;;;;;0.80;0.80;;;;;;;10.28;56.00;101281.69;4978200;28;97300;-47
2022/05/31 01:49:22;;;;;;;0.87;0.80;;;;;;;10.22;55.93;101280.84;4979459;28;96973;-45
2022/05/31 01:51:49;;;;;;;0.83;0.83;;;;;;;10.19;56.05;101277.06;4970516;28;97555;-49
2022/05/31 01:54:16;;;;;;;2.17;0.80;;;;;;;10.16;56.00;101268.97;4977227;28;97608;-45
2022/05/31 01:56:43;;;;;;;0.90;0.90;;;;;;;10.14;55.96;101276.94;4970436;28;97064;-47
2022/05/31 01:59:10;;;;;;;1.00;1.00;;;;;;;10.11;56.00;101273.16;4975549;28;96935;-49
2022/05/31 02:01:38;;;;;;;2.73;0.90;;;;;;;10.09;56.03;101275.56;4975306;28;97037;-46
2022/05/31 02:04:04;;;;;;;1.33;1.20;;;;;;;10.06;55.93;101275.78;4973992;28;97503;-46
2022/05/31 02:06:35;;;;;;;0.83;0.80;;;;;;;10.01;56.08;101279.94;4977186;28;107635;-46
2022/05/31 02:09:03;;;;;;;0.90;0.90;;;;;;;10.00;56.00;101278.44;4975693;28;98001;-48
2022/05/31 02:11:29;;;;;;;0.80;0.80;;;;;;;9.99;55.87;101279.66;4978485;28;97031;-48
2022/05/31 02:13:54;;;;;;;1.47;1.37;;;;;;;9.92;56.08;101269.03;4971070;28;97399;-50
2022/05/31 02:16:20;;;;;;;1.23;1.07;;;;;;;9.87;55.97;101275.19;4969248;28;97802;-46
2022/05/31 02:21:35;;;;;;;1.10;0.83;;;;;;;9.81;56.00;101280.59;4970853;28;97044;-48
2022/05/31 02:24:03;;;;;;;0.70;0.70;;;;;;;9.80;56.02;101272.81;4976910;28;99231;-46
2022/05/31 02:26:28;;;;;;;1.20;1.10;;;;;;;9.72;55.94;101274.41;4972464;28;96981;-47
2022/05/31 02:28:53;;;;;;;0.90;0.90;;;;;;;9.64;56.14;101276.00;4976627;28;117133;-48
2022/05/31 02:31:18;;;;;;;0.70;0.70;;;;;;;9.59;56.18;101271.91;4977499;28;98397;-48
2022/05/31 02:33:44;;;;;;;0.90;0.80;;;;;;;9.59;56.20;101273.91;4976430;28;126920;-45
2022/05/31 02:36:09;;;;;;;0.97;0.80;;;;;;;9.57;56.11;101273.59;4971259;28;97180;-45
2022/05/31 02:38:34;;;;;;;2.40;0.83;;;;;;;9.51;56.29;101276.25;4972659;28;117960;-48
2022/05/31 02:41:00;;;;;;;1.33;0.90;;;;;;;9.50;56.45;101279.47;4971661;28;118781;-51
2022/05/31 02:43:25;;;;;;;1.17;1.07;;;;;;;9.49;56.37;101286.19;4971611;28;96798;-47
2022/05/31 02:45:50;;;;;;;1.23;0.90;;;;;;;9.47;56.59;101285.91;4970348;28;127196;-46
2022/05/31 02:48:15;;;;;;;1.23;1.00;;;;;;;9.43;56.36;101283.34;4974900;28;116870;-45
2022/05/31 02:50:41;;;;;;;1.00;1.00;;;;;;;9.42;56.20;101279.06;4971421;28;117889;-46
2022/05/31 02:53:06;;;;;;;1.37;0.90;;;;;;;9.44;56.15;101281.34;4977728;28;103449;-46
2022/05/31 02:55:31;;;;;;;0.83;0.73;;;;;;;9.41;56.10;101274.81;4977820;28;96712;-49
2022/05/31 02:57:57;;;;;;;0.80;0.80;;;;;;;9.37;56.17;101276.22;4974650;28;97024;-46
2022/05/31 03:00:22;;;;;;;1.27;0.90;;;;;;;9.30;56.04;101271.06;4971306;28;118672;-50
2022/05/31 03:02:47;;;;;;;1.53;0.80;;;;;;;9.25;56.28;101277.97;4971695;28;114832;-47
2022/05/31 03:05:13;;;;;;;1.43;1.27;;;;;;;9.27;56.38;101282.97;4970019;28;125156;-46
2022/05/31 03:07:41;;;;;;;1.57;0.77;;;;;;;9.27;56.42;101293.97;4973336;28;97576;-51
2022/05/31 03:10:07;;;;;;;3.50;0.80;;;;;;;9.24;56.20;101273.69;4969377;27;117516;-47
2022/05/31 03:12:34;;;;;;;1.10;1.00;;;;;;;9.23;56.31;101276.91;4977522;28;97345;-46
2022/05/31 03:15:04;;;;;;;1.67;1.20;;;;;;;9.22;56.19;101280.91;4974556;28;97343;-46
2022/05/31 03:17:38;;;;;;;0.77;0.70;;;;;;;9.19;56.30;101282.59;4977560;28;97721;-46
2022/05/31 03:20:19;;;;;;;0.87;0.87;;;;;;;9.16;56.61;101277.25;4977014;28;97071;-47
2022/05/31 03:22:49;;;;;;;3.73;1.10;;;;;;;9.12;56.26;101276.66;4973928;28;101948;-45
2022/05/31 03:25:27;;;;;;;0.73;0.73;;;;;;;9.06;56.82;101282.06;4976419;28;97240;-46
2022/05/31 03:27:57;;;;;;;0.87;0.87;;;;;;;9.03;56.54;101278.25;4974989;28;97089;-47
2022/05/31 03:30:22;;;;;;;1.30;1.20;;;;;;;9.02;56.47;101275.97;4979155;28;97192;-48
2022/05/31 03:32:49;;;;;;;0.80;0.80;;;;;;;9.01;56.33;101272.47;4973574;28;97421;-47
2022/05/31 03:35:14;;;;;;;0.90;0.90;;;;;;;9.00;56.55;101281.16;4981742;28;97250;-46
2022/05/31 03:37:40;;;;;;;1.63;1.10;;;;;;;8.98;56.57;101278.88;4976838;28;97186;-49
2022/05/31 03:40:06;;;;;;;1.00;1.00;;;;;;;8.98;56.52;101275.38;4981447;28;97336;-45
2022/05/31 03:42:32;;;;;;;0.73;0.73;;;;;;;8.98;56.57;101289.84;4977441;28;100555;-45
2022/05/31 03:44:57;;;;;;;1.43;0.87;;;;;;;9.00;56.69;101275.66;4977664;28;97532;-46
2022/05/31 03:47:23;;;;;;;1.50;0.87;;;;;;;9.03;56.54;101272.00;4978901;28;96830;-48
2022/05/31 03:49:48;;;;;;;1.00;1.00;;;;;;;9.01;56.44;101274.44;4979117;28;96938;-47
2022/05/31 03:52:13;;;;;;;0.97;0.93;;;;;;;8.93;56.31;101276.75;4974398;28;98428;-47
2022/05/31 03:54:39;;;;;;;1.10;1.10;;;;;;;8.89;56.59;101272.66;4981578;28;98364;-47
2022/05/31 03:57:06;;;;;;;0.70;0.70;;;;;;;8.86;56.54;101270.88;4974437;28;96912;-46
2022/05/31 03:59:36;;;;;;;1.23;0.93;;;;;;;8.90;56.45;101272.22;4982700;28;97297;-46
2022/05/31 04:02:01;;;;;;;1.03;1.00;;;;;;;8.91;56.52;101278.47;4980142;28;97348;-47
2022/05/31 04:04:27;;;;;;;1.03;0.80;;;;;;;8.93;56.59;101281.50;4982017;28;98108;-46
2022/05/31 04:06:52;;;;;;;0.90;0.90;;;;;;;8.92;56.49;101269.78;4969571;28;118308;-46
2022/05/31 04:09:17;;;;;;;0.80;0.80;;;;;;;8.90;56.44;101277.72;4976635;28;115500;-46
2022/05/31 04:11:42;;;;;;;0.80;0.80;;;;;;;8.88;56.50;101274.69;4981399;28;123274;-46
2022/05/31 04:14:08;;;;;;;2.40;0.83;;;;;;;8.90;56.47;101277.72;4979636;28;97339;-46
2022/05/31 04:16:33;;;;;;;1.20;0.83;;;;;;;8.91;56.52;101268.25;4973549;28;97163;-46
2022/05/31 04:18:58;;;;;;;1.00;0.83;;;;;;;8.89;56.46;101273.44;4980994;28;108832;-49
2022/05/31 04:21:24;;;;;;;0.80;0.80;;;;;;;8.85;56.61;101266.59;4977729;28;123390;-47
2022/05/31 04:23:59;;;;;;;0.70;0.70;;;;;;;8.82;56.70;101273.78;4985520;28;98401;-46
2022/05/31 04:26:32;;;;;;;1.23;1.23;;;;;;;8.86;56.84;101266.16;4978169;28;97398;-48
2022/05/31 04:28:58;;;;;;;0.80;0.80;;;;;;;8.86;56.83;101268.13;4982579;28;96904;-46
2022/05/31 04:31:24;;;;;;;0.90;0.90;;;;;;;8.88;56.82;101276.66;4977367;28;98664;-46
2022/05/31 04:33:49;;;;;;;1.53;1.23;;;;;;;8.86;56.70;101266.16;4978742;28;97135;-47
2022/05/31 04:36:17;;;;;;;1.13;0.90;;;;;;;8.91;56.76;101268.25;4979140;28;97951;-47
2022/05/31 04:38:42;;;;;;;1.10;0.73;;;;;;;8.95;56.74;101273.56;4986105;28;97423;-46
2022/05/31 04:41:15;;;;;;;0.60;0.60;;;;;;;9.02;56.93;101273.25;4982014;28;102953;-48
2022/05/31 04:43:40;;;;;;;0.70;0.60;;;;;;;9.04;56.69;101277.00;4981203;28;101635;-47
2022/05/31 04:46:10;;;;;;;0.70;0.70;;;;;;;9.11;56.80;101270.41;4976718;28;116833;-45
2022/05/31 04:48:35;;;;;;;0.80;0.80;;;;;;;9.15;56.69;101275.75;4977025;28;96919;-46
2022/05/31 04:51:01;;;;;;;2.17;1.10;;;;;;;9.19;56.50;101270.84;4971624;28;127234;-47
2022/05/31 04:53:26;;;;;;;1.27;0.80;;;;;;;9.21;56.75;101273.88;4976974;28;97184;-49
2022/05/31 04:55:51;;;;;;;0.83;0.83;;;;;;;9.23;56.73;101272.19;4973470;28;116479;-50
2022/05/31 04:58:16;;;;;;;1.00;0.90;;;;;;;9.28;56.73;101279.78;4971797;28;115468;-46
2022/05/31 05:00:42;;;;;;;1.10;1.00;;;;;;;9.35;56.87;101281.41;4971968;28;98636;-46
2022/05/31 05:03:07;;;;;;;0.93;0.93;;;;;;;9.40;56.91;101289.00;4977721;28;125417;-49
2022/05/31 05:05:33;;;;;;;1.67;1.20;;;;;;;9.46;56.90;101289.84;4981276;28;98464;-45
2022/05/31 05:07:59;;;;;;;1.23;0.87;;;;;;;9.51;56.99;101279.00;4973534;28;97064;-45
2022/05/31 05:10:24;;;;;;;0.73;0.73;;;;;;;9.61;56.99;101279.69;4975583;28;125549;-47
2022/05/31 05:12:49;;;;;;;0.80;0.80;;;;;;;9.68;57.05;101280.09;4967827;28;126803;-50
2022/05/31 05:15:14;;;;;;;0.80;0.80;;;;;;;9.78;57.06;101275.28;4971589;28;101979;-45
2022/05/31 05:17:40;;;;;;;1.20;1.10;;;;;;;9.87;57.12;101280.69;4968447;28;97194;-47
2022/05/31 05:20:06;;;;;;;0.60;0.60;;;;;;;9.96;57.07;101280.59;4970229;28;97445;-46
2022/05/31 05:22:31;;;;;;;0.73;0.73;;;;;;;10.04;57.01;101279.00;4977117;28;98361;-45
2022/05/31 05:24:56;;;;;;;0.80;0.80;;;;;;;10.16;57.30;101280.75;4977096;28;116775;-47
2022/05/31 05:27:22;;;;;;;0.67;0.67;;;;;;;10.31;57.38;101280.75;4976643;28;99498;-52
2022/05/31 05:32:31;;;;;;;0.70;0.67;;;;;;;10.59;57.31;101279.22;4973082;28;102227;-46
2022/05/31 05:34:56;;;;;;;0.73;0.73;;;;;;;10.73;57.46;101283.16;4975482;28;124447;-46
2022/05/31 05:37:22;;;;;;;0.80;0.80;;;;;;;10.83;57.46;101279.06;4969346;28;97079;-46
2022/05/31 05:39:47;;;;;;;2.03;1.00;;;;;;;10.96;57.53;101279.50;4974451;28;127391;-48
2022/05/31 05:42:14;;;;;;;2.17;0.73;;;;;;;11.09;57.46;101283.44;4974383;28;103784;-46
2022/05/31 05:44:40;;;;;;;1.00;0.83;;;;;;;11.21;57.47;101285.09;4976369;28;96919;-47
2022/05/31 05:47:07;;;;;;;1.20;1.10;;;;;;;11.38;57.43;101290.06;4977531;28;97130;-47
2022/05/31 05:49:32;;;;;;;1.73;1.30;;;;;;;11.52;57.42;101280.97;4976420;28;97175;-47
2022/05/31 05:52:00;;;;;;;1.17;1.07;;;;;;;11.67;57.37;101296.22;4973202;28;116612;-49
2022/05/31 05:54:26;;;;;;;1.80;1.00;;;;;;;11.78;57.44;101287.31;4975280;28;97039;-46
2022/05/31 05:56:52;;;;;;;1.00;1.00;;;;;;;11.88;57.49;101283.91;4970031;28;106207;-47
2022/05/31 05:59:18;;;;;;;1.90;1.20;;;;;;;11.99;57.48;101289.53;4972370;28;97988;-46
2022/05/31 06:01:56;;;;;;;1.77;1.20;;;;;;;12.12;57.91;101289.19;4971385;28;97335;-45
2022/05/31 06:04:46;;;;;;;1.07;1.07;;;;;;;12.26;57.74;101293.03;4972569;28;97188;-46
2022/05/31 06:07:39;;;;;;;1.20;1.10;;;;;;;12.44;57.62;101295.47;4971622;28;96743;-47
2022/05/31 06:10:19;;;;;;;1.20;1.10;;;;;;;12.63;57.70;101296.63;4974117;28;100545;-46
2022/05/31 06:12:50;;;;;;;1.07;1.07;;;;;;;12.77;57.10;101285.44;4977063;28;98659;-46
2022/05/31 06:15:21;;;;;;;0.97;0.97;;;;;;;12.92;57.32;101296.34;4973093;28;97119;-48
2022/05/31 06:17:48;;;;;;;1.43;0.73;;;;;;;13.03;57.07;101288.13;4973079;28;97463;-47
2022/05/31 06:20:14;;;;;;;1.33;1.23;;;;;;;13.11;57.04;101291.19;4971258;28;97645;-47
2022/05/31 06:22:41;;;;;;;1.63;1.07;;;;;;;13.19;57.16;101290.22;4981076;28;97221;-49
2022/05/31 06:25:08;;;;;;;1.00;1.00;;;;;;;13.27;57.11;101290.53;4969599;28;97590;-46
2022/05/31 06:27:34;;;;;;;1.17;1.03;;;;;;;13.35;57.04;101292.31;4977657;28;100670;-47
2022/05/31 06:29:59;;;;;;;1.30;1.20;;;;;;;13.45;57.15;101292.88;4971854;28;97611;-52
2022/05/31 06:32:25;;;;;;;1.27;0.97;;;;;;;13.57;57.06;101286.13;4970842;28;98173;-47
2022/05/31 06:34:50;;;;;;;1.63;0.80;;;;;;;13.72;57.09;101288.69;4978062;28;96958;-48
2022/05/31 06:37:16;;;;;;;5.40;1.17;;;;;;;13.87;56.90;101289.25;4972529;28;115231;-49
2022/05/31 06:39:43;;;;;;;1.43;1.10;;;;;;;13.97;56.60;101285.75;4973954;28;97920;-47
2022/05/31 06:42:10;;;;;;;2.23;1.27;;;;;;;14.06;56.44;101287.53;4971116;28;97115;-48
2022/05/31 06:44:38;;;;;;;0.60;0.60;;;;;;;14.15;56.44;101287.28;4975198;28;96935;-47
2022/05/31 06:47:03;;;;;;;0.90;0.90;;;;;;;14.24;56.15;101278.75;4973388;28;96923;-47
2022/05/31 06:49:30;;;;;;;1.10;0.80;;;;;;;14.36;56.19;101285.03;4977557;28;97227;-47
2022/05/31 06:57:30;;;;;;;2.63;0.63;;;;;;;14.65;55.64;101293.63;4975951;28;96799;-47
2022/05/31 06:59:55;;;;;;;1.47;1.03;;;;;;;14.74;55.62;101287.78;4974072;28;98614;-47
2022/05/31 07:02:20;;;;;;;1.30;0.77;;;;;;;14.85;55.42;101290.53;4975752;28;97632;-48
2022/05/31 07:04:46;;;;;;;3.47;0.70;;;;;;;14.93;55.38;101291.56;4977113;28;118116;-47
2022/05/31 07:07:11;;;;;;;1.17;1.10;;;;;;;15.02;55.18;101294.06;4973410;28;97476;-47
2022/05/31 07:09:36;;;;;;;0.73;0.73;;;;;;;15.10;54.83;101288.75;4974999;28;98044;-47
2022/05/31 07:12:02;;;;;;;0.77;0.77;;;;;;;15.18;54.76;101283.44;4970345;28;127383;-47
2022/05/31 07:14:27;;;;;;;1.90;0.73;;;;;;;15.28;54.60;101282.66;4978326;28;97294;-47
2022/05/31 07:16:53;;;;;;;1.40;0.73;;;;;;;15.38;54.23;101281.09;4977511;28;97862;-47
2022/05/31 07:19:18;;;;;;;2.20;0.73;;;;;;;15.51;54.26;101275.75;4976020;28;98475;-48
2022/05/31 07:21:44;;;;;;;0.70;0.70;;;;;;;15.63;54.11;101276.47;4975357;28;98516;-47
2022/05/31 07:24:09;;;;;;;3.70;0.80;;;;;;;15.71;54.17;101277.44;4976931;28;98142;-48
2022/05/31 07:26:34;;;;;;;0.70;0.70;;;;;;;15.73;53.89;101272.13;4975429;28;115885;-48
2022/05/31 07:28:59;;;;;;;1.70;0.80;;;;;;;15.78;53.63;101276.88;4974534;28;96902;-47
2022/05/31 07:31:26;;;;;;;2.10;0.77;;;;;;;15.88;53.51;101278.09;4975434;28;126520;-47
2022/05/31 07:33:52;;;;;;;0.60;0.60;;;;;;;15.98;53.39;101284.84;4976197;28;97086;-48
2022/05/31 07:36:19;;;;;;;1.40;0.70;;;;;;;16.08;53.30;101274.16;4970547;28;96792;-47
2022/05/31 07:38:45;;;;;;;1.60;0.80;;;;;;;16.15;53.06;101257.72;4979817;28;102329;-47
2022/05/31 07:41:10;;;;;;;0.80;0.60;;;;;;;16.23;52.73;101260.69;4979087;28;96720;-47
2022/05/31 07:43:35;;;;;;;3.43;0.90;;;;;;;16.29;52.40;101259.38;4978052;28;97060;-47
2022/05/31 07:46:07;;;;;;;1.10;0.73;;;;;;;16.36;51.94;101256.03;4974469;28;96767;-47
2022/05/31 07:48:36;;;;;;;2.23;0.60;;;;;;;16.46;51.93;101259.25;4970189;28;96979;-47
2022/05/31 07:51:03;;;;;;;1.20;0.53;;;;;;;16.54;52.09;101260.19;4976913;28;97213;-47
2022/05/31 07:53:28;;;;;;;0.80;0.80;;;;;;;16.58;51.62;101248.81;4976292;28;97319;-48
2022/05/31 07:56:00;;;;;;;0.80;0.60;;;;;;;16.63;51.34;101257.09;4974776;28;96939;-48
2022/05/31 07:58:32;;;;;;;1.17;0.60;;;;;;;16.75;51.82;101252.94;4976934;28;97751;-47
2022/05/31 08:01:02;;;;;;;1.23;0.67;;;;;;;16.87;51.21;101254.31;4978475;28;97389;-48
2022/05/31 08:03:29;;;;;;;0.60;0.60;;;;;;;16.97;51.27;101254.72;4974811;28;97341;-48
2022/05/31 08:05:54;;;;;;;0.70;0.50;;;;;;;17.01;50.70;101247.59;4967679;28;97595;-48
2022/05/31 08:08:19;;;;;;;0.80;0.40;;;;;;;17.08;50.56;101246.28;4971712;28;96863;-48
2022/05/31 08:10:45;;;;;;;0.80;0.60;;;;;;;17.12;50.91;101235.59;4971759;28;126112;-47
2022/05/31 08:13:10;;;;;;;2.20;0.80;;;;;;;17.12;50.09;101222.44;4977569;28;117687;-48
2022/05/31 08:15:35;;;;;;;0.60;0.50;;;;;;;17.18;50.27;101227.94;4979474;28;97400;-48
2022/05/31 08:18:01;;;;;;;0.90;0.50;;;;;;;17.24;50.20;101229.38;4974824;28;116158;-48
2022/05/31 08:20:26;;;;;;;1.90;0.60;;;;;;;17.26;49.92;101223.28;4984379;28;97542;-47
2022/05/31 08:22:52;;;;;;;1.00;0.63;;;;;;;17.30;49.81;101223.72;4978311;28;117907;-47
2022/05/31 08:25:17;;;;;;;1.87;0.60;;;;;;;17.41;49.76;101220.06;4971159;28;116385;-47
2022/05/31 08:27:42;;;;;;;0.53;0.40;;;;;;;17.52;49.63;101225.50;4973090;28;97378;-48
2022/05/31 08:30:09;;;;;;;1.30;1.20;;;;;;;17.59;49.40;101217.31;4973294;28;127846;-49
2022/05/31 08:32:36;;;;;;;0.73;0.50;;;;;;;17.69;49.11;101215.63;4979095;28;97541;-48
2022/05/31 08:35:02;;;;;;;1.53;0.67;;;;;;;17.75;48.75;101213.53;4980074;28;97032;-48
2022/05/31 08:37:28;;;;;;;0.77;0.53;;;;;;;17.84;48.41;101215.91;4977022;28;97293;-48
2022/05/31 08:39:53;;;;;;;2.23;0.57;;;;;;;17.95;48.87;101204.59;4977192;28;98282;-48
2022/05/31 08:42:22;;;;;;;0.97;0.50;;;;;;;18.10;47.27;101201.34;4978975;28;107984;-48
2022/05/31 08:45:03;;;;;;;1.20;0.40;;;;;;;18.24;45.60;101188.22;4977924;28;97536;-47
2022/05/31 08:47:41;;;;;;;1.27;0.50;;;;;;;18.31;45.72;101195.91;4970553;28;100599;-48
2022/05/31 08:53:29;;;;;;;1.70;0.63;;;;;;;18.57;46.97;101185.59;4973461;28;97254;-49
2022/05/31 08:58:55;;;;;;;0.50;0.40;;;;;;;18.96;46.57;101184.09;4975398;28;101589;-48
2022/05/31 09:01:26;;;;;;;2.60;0.63;;;;;;;19.03;45.87;101180.63;4975732;28;97620;-48
2022/05/31 09:03:56;;;;;;;1.07;0.70;;;;;;;19.05;45.98;101180.84;4977231;28;97283;-48
2022/05/31 09:06:55;;;;;;;0.57;0.47;;;;;;;19.11;43.08;101173.13;4975249;28;97188;-48
2022/05/31 09:09:34;;;;;;;0.80;0.50;;;;;;;19.27;45.09;101166.41;4971412;28;101362;-48
2022/05/31 09:12:14;;;;;;;0.60;0.40;;;;;;;19.46;44.40;101161.47;4971986;28;97472;-48
2022/05/31 09:14:55;;;;;;;0.80;0.50;;;;;;;19.65;43.54;101172.44;4977505;28;97011;-47
2022/05/31 09:18:09;;;;;;;1.07;0.50;;;;;;;19.73;43.08;101162.84;4969981;28;98550;-47
2022/05/31 09:20:56;;;;;;;1.73;0.73;;;;;;;19.78;42.51;101164.78;4950106;28;101984;-48
2022/05/31 09:23:25;;;;;;;2.63;0.93;;;;;;;19.81;44.48;101169.25;4974893;28;101595;-47
2022/05/31 09:26:09;;;;;;;0.83;0.40;;;;;;;19.93;42.95;101178.88;4976575;28;96892;-48
2022/05/31 09:28:52;;;;;;;0.63;0.40;;;;;;;20.13;43.72;101172.53;4979528;28;97562;-48
2022/05/31 09:31:40;;;;;;;0.70;0.40;;;;;;;20.36;42.42;101171.97;4977105;28;99998;-48
2022/05/31 09:34:27;;;;;;;1.00;0.53;;;;;;;20.56;42.60;101171.19;4974642;28;100330;-48
2022/05/31 09:37:10;;;;;;;0.80;0.30;;;;;;;20.71;41.95;101176.84;4974392;28;97219;-47
2022/05/31 09:40:18;;;;;;;0.90;0.40;;;;;;;20.74;41.37;101178.56;4973204;28;97150;-47
2022/05/31 09:43:09;;;;;;;0.60;0.40;;;;;;;20.76;41.19;101175.97;4974126;28;100621;-47
2022/05/31 09:45:51;;;;;;;0.80;0.50;;;;;;;20.77;40.63;101171.88;4977695;28;100152;-47
2022/05/31 09:48:16;;;;;;;1.13;0.40;;;;;;;20.57;42.41;101167.84;4977423;28;97101;-48
2022/05/31 09:50:44;;;;;;;1.23;0.50;;;;;;;20.50;42.52;101173.38;4976622;28;118137;-48
2022/05/31 09:57:05;;;;;;;0.90;0.40;;;;;;;20.61;42.75;101165.44;4977458;28;97276;-47
2022/05/31 09:59:04;;;;;;;1.03;0.50;;;;;;;20.87;39.96;101167.25;4974085;28;96692;-47
2022/05/31 10:01:30;;;;;;;2.87;0.50;;;;;;;20.85;41.39;101162.22;4976210;28;96825;-48
2022/05/31 10:04:07;;;;;;;1.47;0.50;;;;;;;20.68;39.72;101159.16;4976201;28;96851;-48
2022/05/31 10:06:33;;;;;;;3.00;0.50;;;;;;;20.56;41.30;101157.19;4973186;28;102119;-48
2022/05/31 10:09:15;;;;;;;3.10;0.80;;;;;;;20.50;39.72;101154.56;4977533;28;97121;-48
2022/05/31 10:11:48;;;;;;;0.67;0.47;;;;;;;20.52;41.81;101163.16;4980424;28;97296;-48
2022/05/31 10:14:31;;;;;;;0.60;0.40;;;;;;;20.54;41.64;101160.56;4972225;28;97665;-47
2022/05/31 10:17:12;;;;;;;0.70;0.47;;;;;;;20.51;40.43;101164.44;4972433;28;97325;-47
2022/05/31 10:19:38;;;;;;;0.50;0.30;;;;;;;20.50;41.90;101159.41;4977982;28;97110;-48
2022/05/31 10:22:18;;;;;;;1.10;0.40;;;;;;;20.46;40.70;101162.56;4977592;27;96919;-48
2022/05/31 10:24:44;;;;;;;0.60;0.40;;;;;;;20.42;41.92;101167.72;4980413;28;101789;-47
2022/05/31 10:27:21;;;;;;;2.10;0.40;;;;;;;20.48;40.04;101159.22;4979228;28;126432;-47
2022/05/31 10:30:02;;;;;;;1.23;0.60;;;;;;;20.52;40.41;101154.75;4977377;28;97148;-47
2022/05/31 10:32:27;;;;;;;1.17;0.50;;;;;;;20.57;41.02;101153.88;4977681;28;97393;-47
2022/05/31 10:35:20;;;;;;;1.10;0.40;;;;;;;20.62;39.97;101152.22;4977324;28;97710;-48
2022/05/31 10:37:59;;;;;;;0.57;0.40;;;;;;;20.63;39.77;101146.06;4978288;28;101478;-47
2022/05/31 10:41:00;;;;;;;1.00;0.50;;;;;;;20.63;38.90;101145.31;4977620;28;96992;-47
2022/05/31 10:43:43;;;;;;;0.50;0.40;;;;;;;20.69;39.78;101138.28;4977100;28;97396;-47
2022/05/31 10:46:20;;;;;;;1.80;0.40;;;;;;;20.85;38.57;101136.31;4972844;28;100515;-48
2022/05/31 10:48:51;;;;;;;0.60;0.50;;;;;;;21.13;39.54;101132.69;4976761;28;113814;-48
2022/05/31 10:51:34;;;;;;;0.50;0.40;;;;;;;21.19;37.48;101134.03;4970604;28;97070;-48
2022/05/31 10:54:31;;;;;;;0.93;0.43;;;;;;;21.07;36.96;101132.13;4980979;28;97128;-48
2022/05/31 10:57:08;;;;;;;0.60;0.60;;;;;;;20.98;38.91;101124.22;4979068;28;100470;-47
2022/05/31 10:59:52;;;;;;;1.00;0.53;;;;;;;20.94;39.27;101135.78;4976234;28;97391;-47
2022/05/31 11:02:39;;;;;;;0.60;0.40;;;;;;;20.89;39.10;101131.84;4978929;28;97687;-47
2022/05/31 11:05:10;;;;;;;0.90;0.47;;;;;;;21.03;40.08;101124.09;4977793;28;97267;-48
2022/05/31 11:14:13;;;;;;;1.93;0.50;;;;;;;21.68;37.60;101114.16;4980667;28;96625;-48
2022/05/31 11:17:16;;;;;;;0.50;0.43;;;;;;;21.84;37.22;101107.28;4976816;28;97236;-48
2022/05/31 11:19:50;;;;;;;0.60;0.40;;;;;;;21.92;37.10;101101.69;4979388;28;101548;-48
2022/05/31 11:22:18;;;;;;;0.50;0.40;;;;;;;22.03;38.33;101101.31;4971872;28;97364;-48
2022/05/31 11:25:08;;;;;;;1.40;0.57;;;;;;;22.22;37.03;101104.44;4976145;28;97343;-48
2022/05/31 11:27:54;;;;;;;0.80;0.50;;;;;;;22.45;36.95;101096.75;4971036;28;97574;-48
2022/05/31 11:30:27;;;;;;;0.80;0.40;;;;;;;22.67;38.07;101103.63;4973799;28;101613;-48
2022/05/31 11:33:04;;;;;;;0.60;0.50;;;;;;;22.65;36.70;101100.66;4974462;28;97397;-48
2022/05/31 11:35:55;;;;;;;0.60;0.40;;;;;;;22.51;35.52;101102.16;4977960;28;97109;-49
2022/05/31 11:38:38;;;;;;;0.93;0.50;;;;;;;22.29;36.51;101106.50;4978343;28;96807;-47
2022/05/31 11:41:18;;;;;;;2.00;0.60;;;;;;;22.07;36.61;101102.41;4969436;28;100649;-49
2022/05/31 11:44:18;;;;;;;2.63;0.60;;;;;;;21.97;36.50;101098.69;4972917;28;97178;-48
2022/05/31 11:46:58;;;;;;;0.70;0.40;;;;;;;21.86;36.61;101096.28;4971113;28;96846;-48
2022/05/31 11:49:50;;;;;;;1.60;0.70;;;;;;;21.88;37.66;101102.06;4977392;28;96952;-49
2022/05/31 11:52:31;;;;;;;0.80;0.50;;;;;;;21.93;37.15;101100.38;4975383;28;100449;-48
2022/05/31 11:55:30;;;;;;;1.00;0.50;;;;;;;21.96;38.04;101091.59;4976613;28;118532;-49
2022/05/31 11:58:14;;;;;;;0.60;0.50;;;;;;;22.00;36.21;101091.97;4976390;28;97453;-49
2022/05/31 12:00:55;;;;;;;1.40;0.40;;;;;;;21.99;36.93;101096.09;4980744;28;97141;-49
2022/05/31 12:03:52;;;;;;;1.33;0.40;;;;;;;22.01;37.21;101092.72;4977637;28;100384;-47
2022/05/31 12:06:39;;;;;;;0.90;0.50;;;;;;;22.08;37.48;101083.56;4968131;28;101547;-47
2022/05/31 12:09:14;;;;;;;0.70;0.40;;;;;;;22.12;37.95;101092.31;4971132;28;96806;-48